createdAt,value
2023-04-22T00:01:15.607Z,8.45
2023-04-22T00:03:44.748Z,4.18
2023-04-22T00:06:12.182Z,5.05
2023-04-22T00:08:39.228Z,6.30
2023-04-22T00:11:06.710Z,6.30
2023-04-22T00:13:33.787Z,5.18
2023-04-22T00:16:01.103Z,4.82
2023-04-22T00:18:28.201Z,3.47
2023-04-22T00:20:55.378Z,5.57
2023-04-22T00:23:22.414Z,8.57
2023-04-22T00:25:49.420Z,6.60
2023-04-22T00:28:16.414Z,4.43
2023-04-22T00:30:43.490Z,12.27
2023-04-22T00:33:10.609Z,6.00
2023-04-22T00:35:37.677Z,4.57
2023-04-22T00:38:04.795Z,5.50
2023-04-22T00:40:31.930Z,7.82
2023-04-22T00:43:00.933Z,4.68
2023-04-22T00:45:27.975Z,5.28
2023-04-22T00:47:55.919Z,8.27
2023-04-22T00:50:22.988Z,8.38
2023-04-22T00:52:50.305Z,3.78
2023-04-22T00:55:17.433Z,6.60
2023-04-22T00:57:44.866Z,5.65
2023-04-22T01:00:12.149Z,3.78
2023-04-22T01:02:39.570Z,6.78
2023-04-22T01:05:09.711Z,6.00
2023-04-22T01:07:37.006Z,7.93
2023-04-22T01:10:05.122Z,8.05
2023-04-22T01:12:32.168Z,8.13
2023-04-22T01:15:00.002Z,9.75
2023-04-22T01:17:28.286Z,5.38
2023-04-22T01:19:55.810Z,12.10
2023-04-22T01:22:24.261Z,6.28
2023-04-22T01:24:51.569Z,7.13
2023-04-22T01:27:18.890Z,7.38
2023-04-22T01:29:46.193Z,4.05
2023-04-22T01:32:14.034Z,6.88
2023-04-22T01:34:41.114Z,4.63
2023-04-22T01:37:08.145Z,4.35
2023-04-22T01:39:35.754Z,3.88
2023-04-22T01:42:03.537Z,3.72
2023-04-22T01:44:30.724Z,4.38
2023-04-22T01:46:57.952Z,6.75
2023-04-22T01:49:24.959Z,6.22
2023-04-22T01:51:52.029Z,5.82
2023-04-22T01:54:19.131Z,5.38
2023-04-22T01:56:53.871Z,5.85
2023-04-22T01:59:23.097Z,5.57
2023-04-22T02:01:50.469Z,5.88
2023-04-22T02:04:17.859Z,6.10
2023-04-22T02:06:44.950Z,7.07
2023-04-22T02:09:12.171Z,5.13
2023-04-22T02:11:39.130Z,7.15
2023-04-22T02:14:06.227Z,4.70
2023-04-22T02:16:33.378Z,4.60
2023-04-22T02:19:00.556Z,9.68
2023-04-22T02:21:30.310Z,7.25
2023-04-22T02:23:57.352Z,7.93
2023-04-22T02:26:26.060Z,8.55
2023-04-22T02:28:53.592Z,7.28
2023-04-22T02:31:20.748Z,7.30
2023-04-22T02:33:47.787Z,6.30
2023-04-22T02:36:14.833Z,4.35
2023-04-22T02:38:41.883Z,5.88
2023-04-22T02:41:08.957Z,7.82
2023-04-22T02:43:36.012Z,5.00
2023-04-22T02:46:03.074Z,5.93
2023-04-22T02:48:30.077Z,5.50
2023-04-22T02:50:57.065Z,6.43
2023-04-22T02:53:24.104Z,6.35
2023-04-22T02:55:52.471Z,5.60
2023-04-22T02:58:19.651Z,6.38
2023-04-22T03:00:46.813Z,9.38
2023-04-22T03:03:14.087Z,6.18
2023-04-22T03:05:41.202Z,6.10
2023-04-22T03:08:08.208Z,8.20
2023-04-22T03:10:35.765Z,6.75
2023-04-22T03:13:03.075Z,5.00
2023-04-22T03:15:30.040Z,6.65
2023-04-22T03:17:57.103Z,7.25
2023-04-22T03:20:24.325Z,7.20
2023-04-22T03:22:51.551Z,6.72
2023-04-22T03:25:18.770Z,7.63
2023-04-22T03:27:47.307Z,10.07
2023-04-22T03:30:14.475Z,7.88
2023-04-22T03:32:41.521Z,7.72
2023-04-22T03:35:08.896Z,7.50
2023-04-22T03:37:35.954Z,7.70
2023-04-22T03:40:03.945Z,9.68
2023-04-22T03:42:31.123Z,6.72
2023-04-22T03:44:58.471Z,7.10
2023-04-22T03:47:25.661Z,5.88
2023-04-22T03:49:52.654Z,6.45
2023-04-22T03:52:19.917Z,7.07
2023-04-22T03:54:47.033Z,8.45
2023-04-22T03:57:14.078Z,6.35
2023-04-22T03:59:41.520Z,6.80
2023-04-22T04:02:08.997Z,10.23
2023-04-22T04:04:36.765Z,7.22
2023-04-22T04:07:04.193Z,7.97
2023-04-22T04:09:31.311Z,8.25
2023-04-22T04:11:58.338Z,8.35
2023-04-22T04:14:25.531Z,8.02
2023-04-22T04:16:52.664Z,8.68
2023-04-22T04:19:19.768Z,9.18
2023-04-22T04:21:46.830Z,7.35
2023-04-22T04:24:13.833Z,9.30
2023-04-22T04:26:40.821Z,7.35
2023-04-22T04:29:08.602Z,8.48
2023-04-22T04:31:35.712Z,5.20
2023-04-22T04:34:21.422Z,6.07
2023-04-22T04:36:48.472Z,6.38
2023-04-22T04:39:19.306Z,8.35
2023-04-22T04:41:46.363Z,7.10
2023-04-22T04:44:13.495Z,7.70
2023-04-22T04:46:40.818Z,7.30
2023-04-22T04:49:09.675Z,5.38
2023-04-22T04:51:36.794Z,7.70
2023-04-22T04:54:03.831Z,7.95
2023-04-22T04:56:31.804Z,6.45
2023-04-22T04:58:58.803Z,6.95
2023-04-22T05:01:25.910Z,5.40
2023-04-22T05:03:53.172Z,7.47
2023-04-22T05:06:20.271Z,6.38
2023-04-22T05:08:47.341Z,7.57
2023-04-22T05:11:14.417Z,7.25
2023-04-22T05:14:00.139Z,5.20
2023-04-22T05:16:27.215Z,6.93
2023-04-22T05:18:54.340Z,6.70
2023-04-22T05:21:21.350Z,9.73
2023-04-22T05:23:48.793Z,8.98
2023-04-22T05:26:15.871Z,6.38
2023-04-22T05:28:42.939Z,4.40
2023-04-22T05:31:10.046Z,6.00
2023-04-22T05:33:37.144Z,6.65
2023-04-22T05:36:04.304Z,4.78
2023-04-22T05:38:31.336Z,6.25
2023-04-22T05:40:58.311Z,5.90
2023-04-22T05:43:25.896Z,6.20
2023-04-22T05:45:52.988Z,7.82
2023-04-22T05:48:20.253Z,4.40
2023-04-22T05:50:47.463Z,7.20
2023-04-22T05:53:14.445Z,4.90
2023-04-22T05:55:41.589Z,6.97
2023-04-22T05:58:08.587Z,6.72
2023-04-22T06:00:37.001Z,4.40
2023-04-22T06:03:04.507Z,6.22
2023-04-22T06:05:50.720Z,5.32
2023-04-22T06:08:17.922Z,3.47
2023-04-22T06:10:44.994Z,3.88
2023-04-22T06:13:12.051Z,3.10
2023-04-22T06:15:39.300Z,4.93
2023-04-22T06:18:06.489Z,3.55
2023-04-22T06:20:33.594Z,5.60
2023-04-22T06:23:00.671Z,2.30
2023-04-22T06:25:27.755Z,2.97
2023-04-22T06:27:54.760Z,4.88
2023-04-22T06:30:21.743Z,7.32
2023-04-22T06:32:49.097Z,3.00
2023-04-22T06:35:16.261Z,3.90
2023-04-22T06:37:43.370Z,3.50
2023-04-22T06:40:11.061Z,3.38
2023-04-22T06:42:38.321Z,2.85
2023-04-22T06:45:05.768Z,5.97
2023-04-22T06:47:32.849Z,1.98
2023-04-22T06:49:59.969Z,1.70
2023-04-22T06:52:45.505Z,2.67
2023-04-22T06:55:12.892Z,1.50
2023-04-22T06:57:39.958Z,4.47
2023-04-22T07:00:08.864Z,2.08
2023-04-22T07:02:35.985Z,2.92
2023-04-22T07:05:03.271Z,4.78
2023-04-22T07:07:30.813Z,4.22
2023-04-22T07:09:57.941Z,4.72
2023-04-22T07:12:25.839Z,4.40
2023-04-22T07:14:52.888Z,3.80
2023-04-22T07:17:22.509Z,9.13
2023-04-22T07:20:08.564Z,4.68
2023-04-22T07:22:35.549Z,4.82
2023-04-22T07:25:02.917Z,4.97
2023-04-22T07:27:30.628Z,4.93
2023-04-22T07:29:57.691Z,3.63
2023-04-22T07:32:24.887Z,2.40
2023-04-22T07:34:52.021Z,4.63
2023-04-22T07:37:19.015Z,3.05
2023-04-22T07:39:46.006Z,3.90
2023-04-22T07:42:13.124Z,4.68
2023-04-22T07:44:40.300Z,7.32
2023-04-22T07:47:08.650Z,3.38
2023-04-22T07:49:35.791Z,5.28
2023-04-22T07:52:02.940Z,3.55
2023-04-22T07:54:29.933Z,2.85
2023-04-22T07:56:58.481Z,7.05
2023-04-22T07:59:25.775Z,3.42
2023-04-22T08:01:53.030Z,2.58
2023-04-22T08:04:25.170Z,3.58
2023-04-22T08:06:52.396Z,2.55
2023-04-22T08:09:19.494Z,5.07
2023-04-22T08:11:46.512Z,2.45
2023-04-22T08:14:32.185Z,3.65
2023-04-22T08:16:59.188Z,1.77
2023-04-22T08:19:26.276Z,3.00
2023-04-22T08:21:53.645Z,5.32
2023-04-22T08:24:21.067Z,2.45
2023-04-22T08:26:48.096Z,3.42
2023-04-22T08:29:15.308Z,4.18
2023-04-22T08:31:42.773Z,4.78
2023-04-22T08:34:09.818Z,3.30
2023-04-22T08:36:36.907Z,5.85
2023-04-22T08:39:04.215Z,4.72
2023-04-22T08:41:33.743Z,3.15
2023-04-22T08:44:01.687Z,4.63
2023-04-22T08:46:29.650Z,5.85
2023-04-22T08:49:03.219Z,6.00
2023-04-22T08:51:33.707Z,4.82
2023-04-22T08:54:01.083Z,5.50
2023-04-22T08:56:29.278Z,4.70
2023-04-22T08:58:56.589Z,8.65
2023-04-22T09:01:24.524Z,2.30
2023-04-22T09:03:59.124Z,3.30
2023-04-22T09:06:27.456Z,3.38
2023-04-22T09:08:55.325Z,5.07
2023-04-22T09:11:22.423Z,2.63
2023-04-22T09:13:49.656Z,4.65
2023-04-22T09:16:16.778Z,8.80
2023-04-22T09:18:46.059Z,4.13
2023-04-22T09:21:13.438Z,3.03
2023-04-22T09:23:51.667Z,4.18
2023-04-22T09:26:27.569Z,3.67
2023-04-22T09:28:58.344Z,4.95
2023-04-22T09:31:26.214Z,2.28
2023-04-22T09:33:58.633Z,3.03
2023-04-22T09:36:30.213Z,2.95
2023-04-22T09:38:59.722Z,4.20
2023-04-22T09:41:30.939Z,3.40
2023-04-22T09:43:59.213Z,4.93
2023-04-22T09:46:28.314Z,2.28
2023-04-22T09:48:56.636Z,3.15
2023-04-22T09:51:23.863Z,4.28
2023-04-22T09:54:04.206Z,3.97
2023-04-22T09:56:49.887Z,6.38
2023-04-22T09:59:22.236Z,6.05
2023-04-22T10:01:50.979Z,5.45
2023-04-22T10:04:21.517Z,6.65
2023-04-22T10:06:49.237Z,4.10
2023-04-22T10:09:21.455Z,5.60
2023-04-22T10:11:50.412Z,2.22
2023-04-22T10:14:17.522Z,2.97
2023-04-22T10:16:47.669Z,5.05
2023-04-22T10:19:19.676Z,4.07
2023-04-22T10:21:49.404Z,4.30
2023-04-22T10:24:37.372Z,3.53
2023-04-22T10:27:06.884Z,10.07
2023-04-22T10:29:43.684Z,8.52
2023-04-22T10:32:11.693Z,5.68
2023-04-22T10:34:41.638Z,4.03
2023-04-22T10:37:11.837Z,1.88
2023-04-22T10:39:41.527Z,2.70
2023-04-22T10:42:13.014Z,5.28
2023-04-22T10:44:53.758Z,3.17
2023-04-22T10:47:32.769Z,4.28
2023-04-22T10:50:29.489Z,4.13
2023-04-22T10:53:18.077Z,4.18
2023-04-22T10:55:52.887Z,3.78
2023-04-22T10:58:21.633Z,2.58
2023-04-22T11:00:54.382Z,1.88
2023-04-22T11:06:14.668Z,3.38
2023-04-22T11:08:46.131Z,3.72
2023-04-22T11:11:14.374Z,5.90
2023-04-22T11:13:44.126Z,3.38
2023-04-22T11:16:11.660Z,6.63
2023-04-22T11:18:38.982Z,4.05
2023-04-22T11:21:24.887Z,4.47
2023-04-22T11:23:53.245Z,5.25
2023-04-22T11:26:35.276Z,4.95
2023-04-22T11:29:02.360Z,4.20
2023-04-22T11:31:29.799Z,4.63
2023-04-22T11:34:00.365Z,3.45
2023-04-22T11:36:27.791Z,10.52
2023-04-22T11:38:56.449Z,5.70
2023-04-22T11:41:23.874Z,4.80
2023-04-22T11:43:51.262Z,7.60
2023-04-22T11:46:29.793Z,2.55
2023-04-22T11:49:14.964Z,4.40
2023-04-22T11:51:57.823Z,2.33
2023-04-22T11:54:38.014Z,2.72
2023-04-22T11:57:15.621Z,3.35
2023-04-22T11:59:43.314Z,5.03
2023-04-22T12:02:10.586Z,5.50
2023-04-22T12:04:40.029Z,3.67
2023-04-22T12:07:07.739Z,3.38
2023-04-22T12:09:34.877Z,3.35
2023-04-22T12:12:04.511Z,3.58
2023-04-22T12:14:35.883Z,2.33
2023-04-22T12:17:09.493Z,3.10
2023-04-22T12:19:55.962Z,4.45
2023-04-22T12:22:30.531Z,3.10
2023-04-22T12:25:03.299Z,3.80
2023-04-22T12:27:31.729Z,2.45
2023-04-22T12:29:58.837Z,3.60
2023-04-22T12:32:27.050Z,7.03
2023-04-22T12:34:54.604Z,3.83
2023-04-22T12:37:40.200Z,4.25
2023-04-22T12:40:08.036Z,5.78
2023-04-22T12:42:35.540Z,4.00
2023-04-22T12:45:03.557Z,6.45
2023-04-22T12:47:31.400Z,4.38
2023-04-22T12:50:01.333Z,3.00
2023-04-22T12:52:28.537Z,4.00
2023-04-22T12:54:55.666Z,3.03
2023-04-22T12:57:22.721Z,2.45
2023-04-22T12:59:49.850Z,5.05
2023-04-22T13:02:16.977Z,3.05
2023-04-22T13:04:44.488Z,2.42
2023-04-22T13:07:11.672Z,3.25
2023-04-22T13:09:39.195Z,4.13
2023-04-22T13:12:06.845Z,3.28
2023-04-22T13:14:33.913Z,2.33
2023-04-22T13:17:00.922Z,6.40
2023-04-22T13:19:29.690Z,4.75
2023-04-22T13:21:56.673Z,5.07
2023-04-22T13:24:23.812Z,2.15
2023-04-22T13:26:50.823Z,3.53
2023-04-22T13:29:17.878Z,2.05
2023-04-22T13:31:45.278Z,2.60
2023-04-22T13:34:12.628Z,3.63
2023-04-22T13:36:39.628Z,2.92
2023-04-22T13:39:06.680Z,3.60
2023-04-22T13:41:36.789Z,4.13
2023-04-22T13:44:04.864Z,3.47
2023-04-22T13:46:31.982Z,2.85
2023-04-22T13:48:59.199Z,2.53
2023-04-22T13:51:26.289Z,2.92
2023-04-22T13:53:53.367Z,4.68
2023-04-22T13:56:20.515Z,5.70
2023-04-22T13:58:47.806Z,4.00
2023-04-22T14:01:15.190Z,3.05
2023-04-22T14:03:42.657Z,2.40
2023-04-22T14:06:09.978Z,3.47
2023-04-22T14:08:38.322Z,3.85
2023-04-22T14:11:08.611Z,4.47
2023-04-22T14:13:35.952Z,4.75
2023-04-22T14:16:09.757Z,3.97
2023-04-22T14:18:38.654Z,5.25
2023-04-22T14:21:09.310Z,8.25
2023-04-22T14:23:37.581Z,3.55
2023-04-22T14:26:05.672Z,8.07
2023-04-22T14:28:32.821Z,8.13
2023-04-22T14:31:00.224Z,3.17
2023-04-22T14:33:28.223Z,3.67
2023-04-22T14:36:13.860Z,4.40
2023-04-22T14:38:40.977Z,5.10
2023-04-22T14:41:08.017Z,4.28
2023-04-22T14:43:35.270Z,3.85
2023-04-22T14:46:02.411Z,6.13
2023-04-22T14:48:31.321Z,7.05
2023-04-22T14:51:00.016Z,2.42
2023-04-22T14:53:27.241Z,5.18
2023-04-22T14:55:54.603Z,4.15
2023-04-22T14:58:21.645Z,4.10
2023-04-22T15:00:49.404Z,4.88
2023-04-22T15:03:16.926Z,5.07
2023-04-22T15:05:44.290Z,4.15
2023-04-22T15:08:11.316Z,3.55
2023-04-22T15:10:38.468Z,4.10
2023-04-22T15:13:05.721Z,3.83
2023-04-22T15:15:32.957Z,2.97
2023-04-22T15:18:00.081Z,2.90
2023-04-22T15:20:27.169Z,5.13
2023-04-22T15:22:54.924Z,3.17
2023-04-22T15:25:24.415Z,3.50
2023-04-22T15:27:53.280Z,5.50
2023-04-22T15:30:20.450Z,6.22
2023-04-22T15:32:47.572Z,5.80
2023-04-22T15:35:14.661Z,4.45
2023-04-22T15:38:01.534Z,8.15
2023-04-22T15:40:28.628Z,7.20
2023-04-22T15:42:55.717Z,8.38
2023-04-22T15:45:22.780Z,6.18
2023-04-22T15:47:52.376Z,10.35
2023-04-22T15:50:20.187Z,4.65
2023-04-22T15:52:47.395Z,8.00
2023-04-22T15:55:14.552Z,4.70
2023-04-22T15:57:41.668Z,4.63
2023-04-22T16:00:13.138Z,8.75
2023-04-22T16:02:44.269Z,5.07
2023-04-22T16:05:12.190Z,12.43
2023-04-22T16:07:40.337Z,7.25
2023-04-22T16:10:09.216Z,5.15
2023-04-22T16:12:36.236Z,6.05
2023-04-22T16:15:03.386Z,8.10
2023-04-22T16:17:31.478Z,6.68
2023-04-22T16:19:58.834Z,7.85
2023-04-22T16:22:25.911Z,5.07
2023-04-22T16:24:52.934Z,7.90
2023-04-22T16:27:19.919Z,9.85
2023-04-22T16:29:47.047Z,3.50
2023-04-22T16:32:14.201Z,7.60
2023-04-22T16:34:41.409Z,6.28
2023-04-22T16:37:08.557Z,6.88
2023-04-22T16:39:35.787Z,6.25
2023-04-22T16:42:03.207Z,6.15
2023-04-22T16:44:30.488Z,8.20
2023-04-22T16:46:57.507Z,11.60
2023-04-22T16:49:24.590Z,12.25
2023-04-22T16:51:51.725Z,11.55
2023-04-22T16:54:18.792Z,13.57
2023-04-22T16:56:45.921Z,7.60
2023-04-22T17:01:42.166Z,12.88
2023-04-22T17:04:09.475Z,7.00
2023-04-22T17:06:38.572Z,11.80
2023-04-22T17:09:07.210Z,7.45
2023-04-22T17:11:34.306Z,7.78
2023-04-22T17:14:01.477Z,9.52
2023-04-22T17:16:28.639Z,13.90
2023-04-22T17:18:55.698Z,13.05
2023-04-22T17:21:23.562Z,13.15
2023-04-22T17:23:51.040Z,15.63
2023-04-22T17:26:18.193Z,9.23
2023-04-22T17:28:45.820Z,7.95
2023-04-22T17:31:13.413Z,5.35
2023-04-22T17:33:41.279Z,5.43
2023-04-22T17:36:08.777Z,4.00
2023-04-22T17:38:35.975Z,4.07
2023-04-22T17:41:03.137Z,9.90
2023-04-22T17:43:30.251Z,6.88
2023-04-22T17:45:57.332Z,8.68
2023-04-22T17:48:24.567Z,7.03
2023-04-22T17:50:51.753Z,8.90
2023-04-22T17:53:18.767Z,7.22
2023-04-22T17:55:45.964Z,6.40
2023-04-22T17:58:13.102Z,9.05
2023-04-22T18:00:40.120Z,12.27
2023-04-22T18:03:08.715Z,7.43
2023-04-22T18:05:36.050Z,6.63
2023-04-22T18:08:04.369Z,10.90
2023-04-22T18:10:31.819Z,14.30
2023-04-22T18:12:58.845Z,6.60
2023-04-22T18:15:25.984Z,9.07
2023-04-22T18:17:53.238Z,9.32
2023-04-22T18:20:20.736Z,9.13
2023-04-22T18:22:49.878Z,10.48
2023-04-22T18:25:17.077Z,10.27
2023-04-22T18:27:44.441Z,8.77
2023-04-22T18:30:11.754Z,9.55
2023-04-22T18:32:39.094Z,11.88
2023-04-22T18:35:06.703Z,12.40
2023-04-22T18:37:34.916Z,13.65
2023-04-22T18:40:02.703Z,10.40
2023-04-22T18:42:30.490Z,13.25
2023-04-22T18:44:57.562Z,18.02
2023-04-22T18:47:24.596Z,17.58
2023-04-22T18:49:51.623Z,18.63
2023-04-22T18:52:19.085Z,16.77
2023-04-22T18:54:46.422Z,19.90
2023-04-22T18:57:13.547Z,21.33
2023-04-22T18:59:42.299Z,32.95
2023-04-22T19:02:13.622Z,26.48
2023-04-22T19:04:41.061Z,27.52
2023-04-22T19:07:08.405Z,29.30
2023-04-22T19:09:35.987Z,34.22
2023-04-22T19:12:03.192Z,30.48
2023-04-22T19:14:30.350Z,45.10
2023-04-22T19:16:57.364Z,42.80
2023-04-22T19:19:25.786Z,47.00
2023-04-22T19:21:53.102Z,36.92
2023-04-22T19:24:20.314Z,41.63
2023-04-22T19:26:47.352Z,46.97
2023-04-22T19:29:16.324Z,43.95
2023-04-22T19:31:46.699Z,43.42
2023-04-22T19:34:13.812Z,52.85
2023-04-22T19:36:40.972Z,49.72
2023-04-22T19:39:08.691Z,57.03
2023-04-22T19:41:38.055Z,55.17
2023-04-22T19:44:05.137Z,64.15
2023-04-22T19:46:32.243Z,48.88
2023-04-22T19:48:59.635Z,58.40
2023-04-22T19:51:27.263Z,63.00
2023-04-22T19:53:54.917Z,45.85
2023-04-22T19:56:22.045Z,45.15
2023-04-22T19:58:49.980Z,53.97
2023-04-22T20:01:17.254Z,44.58
2023-04-22T20:03:45.106Z,48.03
2023-04-22T20:06:13.214Z,52.00
2023-04-22T20:08:42.323Z,49.67
2023-04-22T20:11:10.008Z,47.42
2023-04-22T20:13:37.240Z,50.90
2023-04-22T20:16:04.545Z,38.83
2023-04-22T20:18:31.797Z,47.72
2023-04-22T20:20:59.978Z,48.78
2023-04-22T20:23:28.425Z,57.20
2023-04-22T20:25:56.057Z,54.05
2023-04-22T20:28:47.996Z,42.83
2023-04-22T20:31:20.539Z,46.83
2023-04-22T20:33:48.444Z,60.05
2023-04-22T20:36:18.200Z,50.95
2023-04-22T20:38:48.919Z,50.25
2023-04-22T20:41:20.272Z,54.20
2023-04-22T20:43:47.377Z,55.20
2023-04-22T20:46:15.048Z,57.72
2023-04-22T20:48:42.826Z,53.58
2023-04-22T20:51:10.115Z,56.08
2023-04-22T20:53:38.270Z,64.60
2023-04-22T20:56:06.156Z,55.35
2023-04-22T20:58:33.436Z,55.60
2023-04-22T21:01:00.753Z,58.50
2023-04-22T21:03:28.061Z,61.35
2023-04-22T21:05:56.884Z,57.67
2023-04-22T21:08:26.200Z,59.58
2023-04-22T21:10:56.106Z,53.28
2023-04-22T21:13:24.344Z,54.80
2023-04-22T21:16:04.630Z,48.55
2023-04-22T21:18:33.625Z,46.15
2023-04-22T21:21:04.560Z,49.00
2023-04-22T21:23:32.203Z,59.45
2023-04-22T21:26:01.868Z,56.85
2023-04-22T21:28:29.587Z,45.08
2023-04-22T21:30:57.273Z,59.03
2023-04-22T21:33:25.566Z,44.10
2023-04-22T21:35:52.793Z,43.63
2023-04-22T21:38:20.078Z,37.42
2023-04-22T21:40:50.073Z,36.28
2023-04-22T21:43:17.193Z,48.72
2023-04-22T21:45:44.260Z,34.13
2023-04-22T21:48:11.436Z,36.55
2023-04-22T21:50:38.555Z,39.05
2023-04-22T21:53:05.896Z,33.70
2023-04-22T21:55:32.990Z,46.97
2023-04-22T21:58:00.047Z,46.35
2023-04-22T22:00:27.102Z,51.63
2023-04-22T22:02:54.469Z,37.45
2023-04-22T22:05:21.783Z,71.65
2023-04-22T22:07:49.114Z,63.90
2023-04-22T22:10:19.424Z,69.57
2023-04-22T22:12:48.270Z,71.30
2023-04-22T22:15:18.957Z,62.58
2023-04-22T22:17:46.291Z,66.68
2023-04-22T22:20:20.314Z,60.60
2023-04-22T22:22:48.001Z,43.13
2023-04-22T22:25:16.148Z,39.13
2023-04-22T22:27:49.172Z,46.20
2023-04-22T22:30:18.754Z,47.97
2023-04-22T22:32:46.294Z,53.67
2023-04-22T22:35:13.714Z,49.72
2023-04-22T22:37:41.197Z,49.63
2023-04-22T22:40:09.066Z,37.03
2023-04-22T22:42:36.282Z,30.13
2023-04-22T22:45:05.317Z,35.33
2023-04-22T22:47:32.654Z,40.05
2023-04-22T22:49:59.838Z,31.52
2023-04-22T22:52:26.929Z,37.15
2023-04-22T22:54:53.995Z,33.72
2023-04-22T22:57:21.032Z,24.05
2023-04-22T22:59:48.037Z,25.73
2023-04-22T23:02:15.225Z,32.67
2023-04-22T23:04:43.498Z,24.65
2023-04-22T23:07:10.920Z,23.70
2023-04-22T23:09:37.904Z,20.33
2023-04-22T23:12:05.692Z,27.15
2023-04-22T23:14:33.526Z,30.10
2023-04-22T23:17:00.687Z,25.33
2023-04-22T23:19:28.706Z,30.77
2023-04-22T23:21:56.659Z,28.38
2023-04-22T23:24:24.218Z,19.58
2023-04-22T23:26:51.544Z,26.63
2023-04-22T23:29:19.697Z,21.27
2023-04-22T23:31:50.737Z,23.80
2023-04-22T23:34:21.389Z,33.60
2023-04-22T23:36:48.495Z,26.05
2023-04-22T23:39:15.716Z,29.10
2023-04-22T23:41:43.095Z,24.50
2023-04-22T23:44:10.397Z,24.90
2023-04-22T23:46:37.810Z,21.00
2023-04-22T23:49:04.917Z,25.15
2023-04-22T23:51:31.965Z,21.52
2023-04-22T23:53:58.970Z,23.42
2023-04-22T23:56:26.641Z,21.70
2023-04-22T23:58:54.049Z,26.45
